Garber, Illinois
Current Conditions -  °F | °C
As of 2:15 PM on Thursday 29 Jan 2015 (Local Time) from KTIP Reporting Station
Overcast Overcast  
Wind Chill: 25°   Ceiling: 1800
Heat Index: 36°   Visibility: 7mi
Dew Point: 31°   Wind: 18mph
Humidity: 83%   Direction: 310°NW
Pressure: 30.05"   Gusts: 24mph
Location:  40.4643°N, 88.3467°W
Report Text: KTIP 292015Z AUTO 31016G21KT 7SM OVC018 02/00 A3005 RMK AO2 T00211005
Loading
Personal Weather Stations






























Interactive Weather Map New forecast layout! Learn more

10-Day Weather Forecast

Advertisements
Track Severe Weather on mobile